Brady, Montana
Current Conditions -  °F | °C
As of 5:53 PM on Monday 26 Jan 2015 (Local Time) from KGTF Reporting Station
Clear Clear  
Wind Chill: 54°   Ceiling: Unl
Heat Index: 54°   Visibility: 10mi
Dew Point: 31°   Wind: 22mph
Humidity: 41%   Direction: 220°SW
Pressure: 29.9"   Gusts: NA
Location:  48.03°N, 111.85°W
Report Text: KGTF 270053Z 22019KT 10SM CLR 12/M01 A2990 RMK AO2 SLP122 T01221006
Loading
Personal Weather Stations






























Interactive Weather Map New forecast layout! Learn more

10-Day Weather Forecast

Advertisements
Track Severe Weather on mobile